sensor_id;sensor_type;location;lat;lon;timestamp;P1;durP1;ratioP1;P2;durP2;ratioP2
77775;SDS011;66965;43.328;6.668;2023-08-12T00:00:59;7.35;;;3.70;;
77775;SDS011;66965;43.328;6.668;2023-08-12T00:03:25;7.28;;;3.05;;
77775;SDS011;66965;43.328;6.668;2023-08-12T00:05:51;7.57;;;3.58;;
77775;SDS011;66965;43.328;6.668;2023-08-12T00:08:17;6.60;;;2.95;;
77775;SDS011;66965;43.328;6.668;2023-08-12T00:10:42;7.90;;;4.15;;
77775;SDS011;66965;43.328;6.668;2023-08-12T00:13:08;5.32;;;3.30;;
77775;SDS011;66965;43.328;6.668;2023-08-12T00:15:34;7.15;;;3.80;;
77775;SDS011;66965;43.328;6.668;2023-08-12T00:17:59;7.78;;;3.08;;
77775;SDS011;66965;43.328;6.668;2023-08-12T00:20:25;8.43;;;3.72;;
77775;SDS011;66965;43.328;6.668;2023-08-12T00:22:50;7.32;;;3.50;;
77775;SDS011;66965;43.328;6.668;2023-08-12T00:25:16;5.70;;;3.45;;
77775;SDS011;66965;43.328;6.668;2023-08-12T00:27:41;5.45;;;2.67;;
77775;SDS011;66965;43.328;6.668;2023-08-12T00:30:07;6.55;;;3.20;;
77775;SDS011;66965;43.328;6.668;2023-08-12T00:32:33;5.28;;;3.47;;
77775;SDS011;66965;43.328;6.668;2023-08-12T00:34:59;6.95;;;3.00;;
77775;SDS011;66965;43.328;6.668;2023-08-12T00:37:24;8.18;;;3.13;;
77775;SDS011;66965;43.328;6.668;2023-08-12T00:39:50;6.78;;;3.35;;
77775;SDS011;66965;43.328;6.668;2023-08-12T00:42:15;5.95;;;3.03;;
77775;SDS011;66965;43.328;6.668;2023-08-12T00:44:41;8.52;;;3.20;;
77775;SDS011;66965;43.328;6.668;2023-08-12T00:47:06;8.10;;;2.85;;
77775;SDS011;66965;43.328;6.668;2023-08-12T00:49:32;6.38;;;2.80;;
77775;SDS011;66965;43.328;6.668;2023-08-12T00:51:58;4.82;;;2.83;;
77775;SDS011;66965;43.328;6.668;2023-08-12T00:56:51;6.43;;;3.17;;
77775;SDS011;66965;43.328;6.668;2023-08-12T00:59:18;7.55;;;3.85;;
77775;SDS011;66965;43.328;6.668;2023-08-12T01:01:45;6.30;;;3.55;;
77775;SDS011;66965;43.328;6.668;2023-08-12T01:04:12;7.05;;;3.72;;
77775;SDS011;66965;43.328;6.668;2023-08-12T01:06:37;6.20;;;3.50;;
77775;SDS011;66965;43.328;6.668;2023-08-12T01:09:03;4.93;;;2.55;;
77775;SDS011;66965;43.328;6.668;2023-08-12T01:11:46;7.80;;;3.42;;
77775;SDS011;66965;43.328;6.668;2023-08-12T01:14:25;5.40;;;3.25;;
77775;SDS011;66965;43.328;6.668;2023-08-12T01:16:58;6.68;;;3.35;;
77775;SDS011;66965;43.328;6.668;2023-08-12T01:21:58;6.65;;;3.50;;
77775;SDS011;66965;43.328;6.668;2023-08-12T01:24:26;5.78;;;3.28;;
77775;SDS011;66965;43.328;6.668;2023-08-12T01:26:52;5.88;;;2.92;;
77775;SDS011;66965;43.328;6.668;2023-08-12T01:29:17;7.95;;;3.35;;
77775;SDS011;66965;43.328;6.668;2023-08-12T01:31:48;6.97;;;3.45;;
77775;SDS011;66965;43.328;6.668;2023-08-12T01:34:34;8.30;;;3.47;;
77775;SDS011;66965;43.328;6.668;2023-08-12T01:37:14;6.55;;;3.95;;
77775;SDS011;66965;43.328;6.668;2023-08-12T01:39:48;6.22;;;2.83;;
77775;SDS011;66965;43.328;6.668;2023-08-12T01:42:15;5.90;;;3.10;;
77775;SDS011;66965;43.328;6.668;2023-08-12T01:44:43;7.45;;;3.00;;
77775;SDS011;66965;43.328;6.668;2023-08-12T01:47:09;6.80;;;3.30;;
77775;SDS011;66965;43.328;6.668;2023-08-12T01:49:34;12.43;;;4.78;;
77775;SDS011;66965;43.328;6.668;2023-08-12T01:52:00;8.57;;;3.47;;
77775;SDS011;66965;43.328;6.668;2023-08-12T01:54:25;5.90;;;3.08;;
77775;SDS011;66965;43.328;6.668;2023-08-12T01:56:51;8.38;;;2.95;;
77775;SDS011;66965;43.328;6.668;2023-08-12T01:59:16;6.80;;;3.20;;
77775;SDS011;66965;43.328;6.668;2023-08-12T02:01:42;5.88;;;3.08;;
77775;SDS011;66965;43.328;6.668;2023-08-12T02:04:07;7.03;;;2.83;;
77775;SDS011;66965;43.328;6.668;2023-08-12T02:06:32;8.25;;;3.28;;
77775;SDS011;66965;43.328;6.668;2023-08-12T02:08:58;7.00;;;3.42;;
77775;SDS011;66965;43.328;6.668;2023-08-12T02:11:23;8.25;;;2.92;;
77775;SDS011;66965;43.328;6.668;2023-08-12T02:13:49;7.85;;;3.45;;
77775;SDS011;66965;43.328;6.668;2023-08-12T02:16:14;6.63;;;3.38;;
77775;SDS011;66965;43.328;6.668;2023-08-12T02:18:40;7.05;;;3.38;;
77775;SDS011;66965;43.328;6.668;2023-08-12T02:21:05;8.38;;;3.72;;
77775;SDS011;66965;43.328;6.668;2023-08-12T02:23:30;5.95;;;3.47;;
77775;SDS011;66965;43.328;6.668;2023-08-12T02:25:56;7.68;;;3.45;;
77775;SDS011;66965;43.328;6.668;2023-08-12T02:28:21;6.00;;;3.30;;
77775;SDS011;66965;43.328;6.668;2023-08-12T02:30:47;6.05;;;3.28;;
77775;SDS011;66965;43.328;6.668;2023-08-12T02:33:12;7.78;;;3.78;;
77775;SDS011;66965;43.328;6.668;2023-08-12T02:35:37;10.25;;;3.60;;
77775;SDS011;66965;43.328;6.668;2023-08-12T02:38:03;5.80;;;3.53;;
77775;SDS011;66965;43.328;6.668;2023-08-12T02:40:29;6.82;;;3.28;;
77775;SDS011;66965;43.328;6.668;2023-08-12T02:42:54;6.22;;;3.40;;
77775;SDS011;66965;43.328;6.668;2023-08-12T02:45:19;4.55;;;2.78;;
77775;SDS011;66965;43.328;6.668;2023-08-12T02:47:45;7.75;;;3.78;;
77775;SDS011;66965;43.328;6.668;2023-08-12T02:50:10;7.35;;;3.42;;
77775;SDS011;66965;43.328;6.668;2023-08-12T02:52:36;7.38;;;3.65;;
77775;SDS011;66965;43.328;6.668;2023-08-12T02:55:01;6.22;;;4.03;;
77775;SDS011;66965;43.328;6.668;2023-08-12T02:57:27;9.13;;;4.15;;
77775;SDS011;66965;43.328;6.668;2023-08-12T02:59:52;10.25;;;4.15;;
77775;SDS011;66965;43.328;6.668;2023-08-12T03:02:17;5.95;;;3.17;;
77775;SDS011;66965;43.328;6.668;2023-08-12T03:04:43;6.15;;;3.35;;
77775;SDS011;66965;43.328;6.668;2023-08-12T03:07:09;5.68;;;3.28;;
77775;SDS011;66965;43.328;6.668;2023-08-12T03:09:34;6.75;;;3.38;;
77775;SDS011;66965;43.328;6.668;2023-08-12T03:12:00;6.78;;;3.28;;
77775;SDS011;66965;43.328;6.668;2023-08-12T03:14:28;5.63;;;2.85;;
77775;SDS011;66965;43.328;6.668;2023-08-12T03:16:54;6.43;;;3.20;;
77775;SDS011;66965;43.328;6.668;2023-08-12T03:19:19;6.85;;;3.30;;
77775;SDS011;66965;43.328;6.668;2023-08-12T03:21:45;5.85;;;3.00;;
77775;SDS011;66965;43.328;6.668;2023-08-12T03:24:10;7.15;;;3.28;;
77775;SDS011;66965;43.328;6.668;2023-08-12T03:26:36;8.18;;;4.28;;
77775;SDS011;66965;43.328;6.668;2023-08-12T03:29:01;7.68;;;5.30;;
77775;SDS011;66965;43.328;6.668;2023-08-12T03:31:27;5.93;;;3.60;;
77775;SDS011;66965;43.328;6.668;2023-08-12T03:33:52;5.30;;;3.13;;
77775;SDS011;66965;43.328;6.668;2023-08-12T03:36:17;6.97;;;4.07;;
77775;SDS011;66965;43.328;6.668;2023-08-12T03:38:43;8.70;;;3.25;;
77775;SDS011;66965;43.328;6.668;2023-08-12T03:41:08;5.22;;;3.15;;
77775;SDS011;66965;43.328;6.668;2023-08-12T03:43:34;5.75;;;3.33;;
77775;SDS011;66965;43.328;6.668;2023-08-12T03:45:59;5.95;;;3.33;;
77775;SDS011;66965;43.328;6.668;2023-08-12T03:48:24;7.45;;;3.58;;
77775;SDS011;66965;43.328;6.668;2023-08-12T03:50:50;6.05;;;3.20;;
77775;SDS011;66965;43.328;6.668;2023-08-12T03:53:15;7.88;;;4.05;;
77775;SDS011;66965;43.328;6.668;2023-08-12T03:55:42;8.13;;;3.60;;
77775;SDS011;66965;43.328;6.668;2023-08-12T03:58:08;7.70;;;3.58;;
77775;SDS011;66965;43.328;6.668;2023-08-12T04:00:33;6.18;;;3.70;;
77775;SDS011;66965;43.328;6.668;2023-08-12T04:02:59;8.23;;;3.80;;
77775;SDS011;66965;43.328;6.668;2023-08-12T04:05:24;7.95;;;3.63;;
77775;SDS011;66965;43.328;6.668;2023-08-12T04:07:49;8.75;;;3.78;;
77775;SDS011;66965;43.328;6.668;2023-08-12T04:10:15;8.05;;;3.67;;
77775;SDS011;66965;43.328;6.668;2023-08-12T04:12:40;8.13;;;3.80;;
77775;SDS011;66965;43.328;6.668;2023-08-12T04:17:32;6.05;;;3.83;;
77775;SDS011;66965;43.328;6.668;2023-08-12T04:19:58;5.55;;;3.83;;
77775;SDS011;66965;43.328;6.668;2023-08-12T04:22:23;10.45;;;3.95;;
77775;SDS011;66965;43.328;6.668;2023-08-12T04:24:49;9.00;;;4.55;;
77775;SDS011;66965;43.328;6.668;2023-08-12T04:27:14;7.00;;;3.90;;
77775;SDS011;66965;43.328;6.668;2023-08-12T04:29:41;5.45;;;3.85;;
77775;SDS011;66965;43.328;6.668;2023-08-12T04:32:07;9.38;;;3.95;;
77775;SDS011;66965;43.328;6.668;2023-08-12T04:34:32;6.05;;;3.90;;
77775;SDS011;66965;43.328;6.668;2023-08-12T04:36:57;7.32;;;3.47;;
77775;SDS011;66965;43.328;6.668;2023-08-12T04:39:23;8.85;;;4.00;;
77775;SDS011;66965;43.328;6.668;2023-08-12T04:41:48;10.43;;;4.38;;
77775;SDS011;66965;43.328;6.668;2023-08-12T04:44:14;8.05;;;4.03;;
77775;SDS011;66965;43.328;6.668;2023-08-12T04:46:39;8.55;;;3.85;;
77775;SDS011;66965;43.328;6.668;2023-08-12T04:49:05;7.53;;;3.80;;
77775;SDS011;66965;43.328;6.668;2023-08-12T04:51:30;9.68;;;4.65;;
77775;SDS011;66965;43.328;6.668;2023-08-12T04:53:56;6.47;;;3.90;;
77775;SDS011;66965;43.328;6.668;2023-08-12T04:56:21;8.43;;;3.88;;
77775;SDS011;66965;43.328;6.668;2023-08-12T05:01:13;7.30;;;3.83;;
77775;SDS011;66965;43.328;6.668;2023-08-12T05:03:39;11.25;;;4.22;;
77775;SDS011;66965;43.328;6.668;2023-08-12T05:06:04;6.07;;;3.45;;
77775;SDS011;66965;43.328;6.668;2023-08-12T05:08:30;8.25;;;3.90;;
77775;SDS011;66965;43.328;6.668;2023-08-12T05:10:55;6.93;;;3.97;;
77775;SDS011;66965;43.328;6.668;2023-08-12T05:13:21;8.95;;;3.65;;
77775;SDS011;66965;43.328;6.668;2023-08-12T05:15:47;7.75;;;3.67;;
77775;SDS011;66965;43.328;6.668;2023-08-12T05:18:13;5.63;;;3.58;;
77775;SDS011;66965;43.328;6.668;2023-08-12T05:20:42;7.72;;;4.22;;
77775;SDS011;66965;43.328;6.668;2023-08-12T05:23:08;9.73;;;4.43;;
77775;SDS011;66965;43.328;6.668;2023-08-12T05:25:33;10.15;;;4.72;;
77775;SDS011;66965;43.328;6.668;2023-08-12T05:27:59;8.32;;;4.30;;
77775;SDS011;66965;43.328;6.668;2023-08-12T05:30:24;8.15;;;3.72;;
77775;SDS011;66965;43.328;6.668;2023-08-12T05:32:50;7.72;;;3.67;;
77775;SDS011;66965;43.328;6.668;2023-08-12T05:35:15;7.95;;;4.43;;
77775;SDS011;66965;43.328;6.668;2023-08-12T05:37:41;8.50;;;3.97;;
77775;SDS011;66965;43.328;6.668;2023-08-12T05:40:08;9.20;;;4.13;;
77775;SDS011;66965;43.328;6.668;2023-08-12T05:42:34;7.88;;;3.92;;
77775;SDS011;66965;43.328;6.668;2023-08-12T05:45:00;6.10;;;3.50;;
77775;SDS011;66965;43.328;6.668;2023-08-12T05:47:26;13.13;;;5.93;;
77775;SDS011;66965;43.328;6.668;2023-08-12T05:49:51;7.60;;;4.18;;
77775;SDS011;66965;43.328;6.668;2023-08-12T05:52:16;11.27;;;4.05;;
77775;SDS011;66965;43.328;6.668;2023-08-12T05:54:42;9.90;;;4.03;;
77775;SDS011;66965;43.328;6.668;2023-08-12T05:57:07;12.60;;;4.43;;
77775;SDS011;66965;43.328;6.668;2023-08-12T05:59:33;9.80;;;4.10;;
77775;SDS011;66965;43.328;6.668;2023-08-12T06:01:58;10.02;;;3.75;;
77775;SDS011;66965;43.328;6.668;2023-08-12T06:04:24;9.45;;;4.00;;
77775;SDS011;66965;43.328;6.668;2023-08-12T06:06:49;7.05;;;3.67;;
77775;SDS011;66965;43.328;6.668;2023-08-12T06:09:15;8.90;;;4.13;;
77775;SDS011;66965;43.328;6.668;2023-08-12T06:11:40;6.22;;;3.58;;
77775;SDS011;66965;43.328;6.668;2023-08-12T06:14:06;7.47;;;3.88;;
77775;SDS011;66965;43.328;6.668;2023-08-12T06:16:31;8.07;;;3.70;;
77775;SDS011;66965;43.328;6.668;2023-08-12T06:18:57;6.07;;;3.72;;
77775;SDS011;66965;43.328;6.668;2023-08-12T06:21:22;10.32;;;4.20;;
77775;SDS011;66965;43.328;6.668;2023-08-12T06:23:48;8.48;;;4.35;;
77775;SDS011;66965;43.328;6.668;2023-08-12T06:26:13;8.98;;;4.80;;
77775;SDS011;66965;43.328;6.668;2023-08-12T06:28:38;5.75;;;3.25;;
77775;SDS011;66965;43.328;6.668;2023-08-12T06:31:04;9.27;;;3.55;;
77775;SDS011;66965;43.328;6.668;2023-08-12T06:33:29;9.20;;;3.35;;
77775;SDS011;66965;43.328;6.668;2023-08-12T06:35:55;8.27;;;3.53;;
77775;SDS011;66965;43.328;6.668;2023-08-12T06:38:20;8.52;;;3.17;;
77775;SDS011;66965;43.328;6.668;2023-08-12T06:40:46;6.82;;;3.00;;
77775;SDS011;66965;43.328;6.668;2023-08-12T06:43:12;7.55;;;3.83;;
77775;SDS011;66965;43.328;6.668;2023-08-12T06:45:37;7.25;;;3.70;;
77775;SDS011;66965;43.328;6.668;2023-08-12T06:48:03;6.68;;;3.40;;
77775;SDS011;66965;43.328;6.668;2023-08-12T06:50:28;5.32;;;3.10;;
77775;SDS011;66965;43.328;6.668;2023-08-12T06:52:54;6.93;;;3.55;;
77775;SDS011;66965;43.328;6.668;2023-08-12T06:55:19;7.22;;;3.60;;
77775;SDS011;66965;43.328;6.668;2023-08-12T06:57:44;5.95;;;3.55;;
77775;SDS011;66965;43.328;6.668;2023-08-12T07:00:10;7.70;;;3.47;;
77775;SDS011;66965;43.328;6.668;2023-08-12T07:02:36;8.57;;;3.30;;
77775;SDS011;66965;43.328;6.668;2023-08-12T07:05:01;6.43;;;4.55;;
77775;SDS011;66965;43.328;6.668;2023-08-12T07:07:27;8.60;;;3.65;;
77775;SDS011;66965;43.328;6.668;2023-08-12T07:09:52;7.82;;;3.95;;
77775;SDS011;66965;43.328;6.668;2023-08-12T07:12:18;9.75;;;3.97;;
77775;SDS011;66965;43.328;6.668;2023-08-12T07:14:43;10.52;;;3.63;;
77775;SDS011;66965;43.328;6.668;2023-08-12T07:17:09;13.18;;;4.10;;
77775;SDS011;66965;43.328;6.668;2023-08-12T07:19:34;6.00;;;3.65;;
77775;SDS011;66965;43.328;6.668;2023-08-12T07:21:59;8.30;;;3.97;;
77775;SDS011;66965;43.328;6.668;2023-08-12T07:24:25;6.18;;;3.55;;
77775;SDS011;66965;43.328;6.668;2023-08-12T07:26:50;8.68;;;3.63;;
77775;SDS011;66965;43.328;6.668;2023-08-12T07:29:16;8.45;;;3.88;;
77775;SDS011;66965;43.328;6.668;2023-08-12T07:31:41;8.48;;;3.85;;
77775;SDS011;66965;43.328;6.668;2023-08-12T07:34:07;8.07;;;5.05;;
77775;SDS011;66965;43.328;6.668;2023-08-12T07:36:32;10.75;;;4.07;;
77775;SDS011;66965;43.328;6.668;2023-08-12T07:38:58;6.78;;;4.90;;
77775;SDS011;66965;43.328;6.668;2023-08-12T07:41:23;11.57;;;3.33;;
77775;SDS011;66965;43.328;6.668;2023-08-12T07:43:52;9.80;;;4.40;;
77775;SDS011;66965;43.328;6.668;2023-08-12T07:46:18;8.57;;;3.85;;
77775;SDS011;66965;43.328;6.668;2023-08-12T07:48:43;12.98;;;4.82;;
77775;SDS011;66965;43.328;6.668;2023-08-12T07:51:09;8.70;;;4.20;;
77775;SDS011;66965;43.328;6.668;2023-08-12T07:53:34;11.13;;;4.25;;
77775;SDS011;66965;43.328;6.668;2023-08-12T07:58:25;10.07;;;4.00;;
77775;SDS011;66965;43.328;6.668;2023-08-12T08:03:19;12.18;;;4.15;;
77775;SDS011;66965;43.328;6.668;2023-08-12T08:08:10;9.82;;;3.97;;
77775;SDS011;66965;43.328;6.668;2023-08-12T08:13:01;9.87;;;3.83;;
77775;SDS011;66965;43.328;6.668;2023-08-12T08:17:52;8.10;;;3.20;;
77775;SDS011;66965;43.328;6.668;2023-08-12T08:20:17;8.48;;;3.35;;
77775;SDS011;66965;43.328;6.668;2023-08-12T08:22:43;8.93;;;3.97;;
77775;SDS011;66965;43.328;6.668;2023-08-12T08:25:08;6.03;;;3.28;;
77775;SDS011;66965;43.328;6.668;2023-08-12T08:27:34;6.40;;;3.35;;
77775;SDS011;66965;43.328;6.668;2023-08-12T08:29:59;7.47;;;3.53;;
77775;SDS011;66965;43.328;6.668;2023-08-12T08:32:24;8.13;;;3.13;;
77775;SDS011;66965;43.328;6.668;2023-08-12T08:34:50;6.05;;;2.53;;
77775;SDS011;66965;43.328;6.668;2023-08-12T08:37:16;8.35;;;3.25;;
77775;SDS011;66965;43.328;6.668;2023-08-12T08:39:41;8.25;;;3.00;;
77775;SDS011;66965;43.328;6.668;2023-08-12T08:42:07;7.80;;;3.60;;
77775;SDS011;66965;43.328;6.668;2023-08-12T08:44:35;6.35;;;3.05;;
77775;SDS011;66965;43.328;6.668;2023-08-12T08:47:03;7.53;;;3.47;;
77775;SDS011;66965;43.328;6.668;2023-08-12T08:49:29;9.35;;;3.63;;
77775;SDS011;66965;43.328;6.668;2023-08-12T08:51:56;8.95;;;3.55;;
77775;SDS011;66965;43.328;6.668;2023-08-12T08:54:24;5.35;;;2.85;;
77775;SDS011;66965;43.328;6.668;2023-08-12T08:56:50;9.73;;;3.35;;
77775;SDS011;66965;43.328;6.668;2023-08-12T08:59:16;11.55;;;3.28;;
77775;SDS011;66965;43.328;6.668;2023-08-12T09:01:41;5.38;;;2.60;;
77775;SDS011;66965;43.328;6.668;2023-08-12T09:04:11;10.35;;;3.28;;
77775;SDS011;66965;43.328;6.668;2023-08-12T09:06:38;9.88;;;3.40;;
77775;SDS011;66965;43.328;6.668;2023-08-12T09:09:05;6.88;;;2.88;;
77775;SDS011;66965;43.328;6.668;2023-08-12T09:11:35;5.55;;;2.63;;
77775;SDS011;66965;43.328;6.668;2023-08-12T09:14:03;15.07;;;3.25;;
77775;SDS011;66965;43.328;6.668;2023-08-12T09:16:30;6.32;;;2.40;;
77775;SDS011;66965;43.328;6.668;2023-08-12T09:18:55;7.03;;;2.95;;
77775;SDS011;66965;43.328;6.668;2023-08-12T09:21:21;5.25;;;2.80;;
77775;SDS011;66965;43.328;6.668;2023-08-12T09:23:47;6.72;;;2.70;;
77775;SDS011;66965;43.328;6.668;2023-08-12T09:26:14;7.55;;;3.03;;
77775;SDS011;66965;43.328;6.668;2023-08-12T09:28:41;6.05;;;2.80;;
77775;SDS011;66965;43.328;6.668;2023-08-12T09:31:07;7.35;;;2.83;;
77775;SDS011;66965;43.328;6.668;2023-08-12T09:33:33;6.68;;;2.90;;
77775;SDS011;66965;43.328;6.668;2023-08-12T09:36:04;7.07;;;2.83;;
77775;SDS011;66965;43.328;6.668;2023-08-12T09:38:29;5.00;;;2.50;;
77775;SDS011;66965;43.328;6.668;2023-08-12T09:40:56;8.13;;;3.28;;
77775;SDS011;66965;43.328;6.668;2023-08-12T09:43:24;7.03;;;2.58;;
77775;SDS011;66965;43.328;6.668;2023-08-12T09:45:55;8.35;;;2.88;;
77775;SDS011;66965;43.328;6.668;2023-08-12T09:48:22;5.47;;;2.50;;
77775;SDS011;66965;43.328;6.668;2023-08-12T09:50:48;5.80;;;2.75;;
77775;SDS011;66965;43.328;6.668;2023-08-12T09:53:15;7.78;;;2.50;;
77775;SDS011;66965;43.328;6.668;2023-08-12T09:55:40;12.10;;;3.58;;
77775;SDS011;66965;43.328;6.668;2023-08-12T09:58:07;5.68;;;2.75;;
77775;SDS011;66965;43.328;6.668;2023-08-12T10:00:35;6.57;;;2.55;;
77775;SDS011;66965;43.328;6.668;2023-08-12T10:03:01;7.32;;;2.40;;
77775;SDS011;66965;43.328;6.668;2023-08-12T10:05:27;9.10;;;3.13;;
77775;SDS011;66965;43.328;6.668;2023-08-12T10:07:56;9.23;;;2.83;;
77775;SDS011;66965;43.328;6.668;2023-08-12T10:10:23;6.30;;;3.00;;
77775;SDS011;66965;43.328;6.668;2023-08-12T10:12:50;8.02;;;2.78;;
77775;SDS011;66965;43.328;6.668;2023-08-12T10:15:15;6.93;;;2.88;;
77775;SDS011;66965;43.328;6.668;2023-08-12T10:17:41;8.30;;;2.10;;
77775;SDS011;66965;43.328;6.668;2023-08-12T10:20:13;9.13;;;2.70;;
77775;SDS011;66965;43.328;6.668;2023-08-12T10:22:44;8.40;;;3.00;;
77775;SDS011;66965;43.328;6.668;2023-08-12T10:25:11;6.53;;;2.50;;
77775;SDS011;66965;43.328;6.668;2023-08-12T10:27:38;7.05;;;2.65;;
77775;SDS011;66965;43.328;6.668;2023-08-12T10:30:04;6.20;;;2.95;;
77775;SDS011;66965;43.328;6.668;2023-08-12T10:32:31;7.28;;;2.85;;
77775;SDS011;66965;43.328;6.668;2023-08-12T10:34:57;8.65;;;3.10;;
77775;SDS011;66965;43.328;6.668;2023-08-12T10:37:26;7.97;;;2.90;;
77775;SDS011;66965;43.328;6.668;2023-08-12T10:39:55;5.90;;;2.60;;
77775;SDS011;66965;43.328;6.668;2023-08-12T10:45:09;7.68;;;2.67;;
77775;SDS011;66965;43.328;6.668;2023-08-12T10:47:40;8.13;;;2.80;;
77775;SDS011;66965;43.328;6.668;2023-08-12T10:50:16;13.15;;;3.33;;
77775;SDS011;66965;43.328;6.668;2023-08-12T10:52:46;11.30;;;3.10;;
77775;SDS011;66965;43.328;6.668;2023-08-12T10:55:26;7.72;;;3.08;;
77775;SDS011;66965;43.328;6.668;2023-08-12T10:57:53;8.45;;;4.10;;
77775;SDS011;66965;43.328;6.668;2023-08-12T11:00:22;11.35;;;3.88;;
77775;SDS011;66965;43.328;6.668;2023-08-12T11:02:53;9.77;;;3.00;;
77775;SDS011;66965;43.328;6.668;2023-08-12T11:05:19;8.82;;;3.55;;
77775;SDS011;66965;43.328;6.668;2023-08-12T11:07:46;9.27;;;3.53;;
77775;SDS011;66965;43.328;6.668;2023-08-12T11:10:20;11.18;;;4.10;;
77775;SDS011;66965;43.328;6.668;2023-08-12T11:12:57;10.60;;;3.80;;
77775;SDS011;66965;43.328;6.668;2023-08-12T11:15:34;12.95;;;3.75;;
77775;SDS011;66965;43.328;6.668;2023-08-12T11:18:03;10.75;;;4.03;;
77775;SDS011;66965;43.328;6.668;2023-08-12T11:20:30;9.52;;;3.45;;
77775;SDS011;66965;43.328;6.668;2023-08-12T11:22:56;9.65;;;3.75;;
77775;SDS011;66965;43.328;6.668;2023-08-12T11:25:23;10.73;;;4.13;;
77775;SDS011;66965;43.328;6.668;2023-08-12T11:27:49;11.10;;;3.75;;
77775;SDS011;66965;43.328;6.668;2023-08-12T11:30:18;10.57;;;3.95;;
77775;SDS011;66965;43.328;6.668;2023-08-12T11:32:46;17.15;;;4.03;;
77775;SDS011;66965;43.328;6.668;2023-08-12T11:35:13;10.63;;;3.50;;
77775;SDS011;66965;43.328;6.668;2023-08-12T11:37:40;13.77;;;4.15;;
77775;SDS011;66965;43.328;6.668;2023-08-12T11:40:08;11.93;;;4.22;;
77775;SDS011;66965;43.328;6.668;2023-08-12T11:42:35;9.43;;;3.85;;
77775;SDS011;66965;43.328;6.668;2023-08-12T11:45:02;6.47;;;3.03;;
77775;SDS011;66965;43.328;6.668;2023-08-12T11:47:28;7.30;;;3.15;;
77775;SDS011;66965;43.328;6.668;2023-08-12T11:49:54;6.90;;;2.72;;
77775;SDS011;66965;43.328;6.668;2023-08-12T11:52:19;9.13;;;2.75;;
77775;SDS011;66965;43.328;6.668;2023-08-12T11:54:45;7.10;;;2.63;;
77775;SDS011;66965;43.328;6.668;2023-08-12T11:57:13;6.15;;;3.08;;
77775;SDS011;66965;43.328;6.668;2023-08-12T11:59:38;7.70;;;2.85;;
77775;SDS011;66965;43.328;6.668;2023-08-12T12:02:03;7.38;;;2.92;;
77775;SDS011;66965;43.328;6.668;2023-08-12T12:04:32;9.52;;;3.33;;
77775;SDS011;66965;43.328;6.668;2023-08-12T12:06:58;10.00;;;3.90;;
77775;SDS011;66965;43.328;6.668;2023-08-12T12:09:24;9.15;;;3.28;;
77775;SDS011;66965;43.328;6.668;2023-08-12T12:11:54;9.10;;;3.33;;
77775;SDS011;66965;43.328;6.668;2023-08-12T12:14:20;6.93;;;2.97;;
77775;SDS011;66965;43.328;6.668;2023-08-12T12:16:46;9.73;;;3.40;;
77775;SDS011;66965;43.328;6.668;2023-08-12T12:21:46;5.10;;;2.72;;
77775;SDS011;66965;43.328;6.668;2023-08-12T12:24:14;8.02;;;3.08;;
77775;SDS011;66965;43.328;6.668;2023-08-12T12:26:40;8.65;;;2.65;;
77775;SDS011;66965;43.328;6.668;2023-08-12T12:29:06;5.22;;;2.40;;
77775;SDS011;66965;43.328;6.668;2023-08-12T12:31:32;4.85;;;2.92;;
77775;SDS011;66965;43.328;6.668;2023-08-12T12:34:00;6.57;;;2.60;;
77775;SDS011;66965;43.328;6.668;2023-08-12T12:36:26;6.03;;;2.78;;
77775;SDS011;66965;43.328;6.668;2023-08-12T12:38:51;6.50;;;3.58;;
77775;SDS011;66965;43.328;6.668;2023-08-12T12:41:17;7.30;;;2.50;;
77775;SDS011;66965;43.328;6.668;2023-08-12T12:43:42;9.65;;;3.50;;
77775;SDS011;66965;43.328;6.668;2023-08-12T12:46:08;7.90;;;3.20;;
77775;SDS011;66965;43.328;6.668;2023-08-12T12:48:33;5.18;;;2.38;;
77775;SDS011;66965;43.328;6.668;2023-08-12T12:50:59;5.75;;;2.30;;
77775;SDS011;66965;43.328;6.668;2023-08-12T12:53:24;7.60;;;2.65;;
77775;SDS011;66965;43.328;6.668;2023-08-12T12:55:50;6.07;;;2.95;;
77775;SDS011;66965;43.328;6.668;2023-08-12T12:58:16;8.80;;;2.47;;
77775;SDS011;66965;43.328;6.668;2023-08-12T13:00:41;7.10;;;3.13;;
77775;SDS011;66965;43.328;6.668;2023-08-12T13:03:07;8.68;;;3.00;;
77775;SDS011;66965;43.328;6.668;2023-08-12T13:05:32;7.63;;;2.83;;
77775;SDS011;66965;43.328;6.668;2023-08-12T13:07:57;9.70;;;2.92;;
77775;SDS011;66965;43.328;6.668;2023-08-12T13:10:23;8.43;;;3.17;;
77775;SDS011;66965;43.328;6.668;2023-08-12T13:12:48;7.07;;;2.45;;
77775;SDS011;66965;43.328;6.668;2023-08-12T13:15:14;8.52;;;2.85;;
77775;SDS011;66965;43.328;6.668;2023-08-12T13:17:40;5.65;;;2.70;;
77775;SDS011;66965;43.328;6.668;2023-08-12T13:20:06;6.25;;;2.67;;
77775;SDS011;66965;43.328;6.668;2023-08-12T13:22:32;6.07;;;2.10;;
77775;SDS011;66965;43.328;6.668;2023-08-12T13:24:57;5.28;;;2.60;;
77775;SDS011;66965;43.328;6.668;2023-08-12T13:27:22;6.53;;;2.60;;
77775;SDS011;66965;43.328;6.668;2023-08-12T13:29:48;5.60;;;2.25;;
77775;SDS011;66965;43.328;6.668;2023-08-12T13:32:13;5.55;;;2.50;;
77775;SDS011;66965;43.328;6.668;2023-08-12T13:34:39;9.48;;;2.58;;
77775;SDS011;66965;43.328;6.668;2023-08-12T13:37:04;5.13;;;2.55;;
77775;SDS011;66965;43.328;6.668;2023-08-12T13:39:30;8.95;;;3.00;;
77775;SDS011;66965;43.328;6.668;2023-08-12T13:41:56;6.70;;;3.10;;
77775;SDS011;66965;43.328;6.668;2023-08-12T13:44:21;4.57;;;2.28;;
77775;SDS011;66965;43.328;6.668;2023-08-12T13:46:47;12.00;;;3.33;;
77775;SDS011;66965;43.328;6.668;2023-08-12T13:49:12;5.55;;;2.30;;
77775;SDS011;66965;43.328;6.668;2023-08-12T13:51:38;8.40;;;2.80;;
77775;SDS011;66965;43.328;6.668;2023-08-12T13:54:03;5.75;;;1.95;;
77775;SDS011;66965;43.328;6.668;2023-08-12T13:56:29;5.85;;;2.20;;
77775;SDS011;66965;43.328;6.668;2023-08-12T13:58:54;11.40;;;2.78;;
77775;SDS011;66965;43.328;6.668;2023-08-12T14:01:21;6.85;;;2.55;;
77775;SDS011;66965;43.328;6.668;2023-08-12T14:03:46;9.18;;;2.22;;
77775;SDS011;66965;43.328;6.668;2023-08-12T14:06:12;8.32;;;2.70;;
77775;SDS011;66965;43.328;6.668;2023-08-12T14:08:37;6.07;;;2.30;;
77775;SDS011;66965;43.328;6.668;2023-08-12T14:11:03;8.45;;;2.65;;
77775;SDS011;66965;43.328;6.668;2023-08-12T14:13:28;8.68;;;2.33;;
77775;SDS011;66965;43.328;6.668;2023-08-12T14:15:54;8.98;;;2.42;;
77775;SDS011;66965;43.328;6.668;2023-08-12T14:18:19;9.63;;;2.53;;
77775;SDS011;66965;43.328;6.668;2023-08-12T14:20:45;7.45;;;3.05;;
77775;SDS011;66965;43.328;6.668;2023-08-12T14:23:10;6.25;;;2.90;;
77775;SDS011;66965;43.328;6.668;2023-08-12T14:25:36;5.53;;;2.35;;
77775;SDS011;66965;43.328;6.668;2023-08-12T14:28:01;9.95;;;2.90;;
77775;SDS011;66965;43.328;6.668;2023-08-12T14:30:27;7.68;;;2.40;;
77775;SDS011;66965;43.328;6.668;2023-08-12T14:32:52;8.93;;;3.22;;
77775;SDS011;66965;43.328;6.668;2023-08-12T14:35:18;10.07;;;3.35;;
77775;SDS011;66965;43.328;6.668;2023-08-12T14:37:43;8.10;;;2.75;;
77775;SDS011;66965;43.328;6.668;2023-08-12T14:40:09;8.52;;;3.55;;
77775;SDS011;66965;43.328;6.668;2023-08-12T14:42:35;6.07;;;2.67;;
77775;SDS011;66965;43.328;6.668;2023-08-12T14:45:01;9.52;;;3.20;;
77775;SDS011;66965;43.328;6.668;2023-08-12T14:47:26;7.15;;;3.05;;
77775;SDS011;66965;43.328;6.668;2023-08-12T14:49:52;8.40;;;3.22;;
77775;SDS011;66965;43.328;6.668;2023-08-12T14:52:21;7.65;;;3.05;;
77775;SDS011;66965;43.328;6.668;2023-08-12T14:54:47;10.77;;;3.80;;
77775;SDS011;66965;43.328;6.668;2023-08-12T14:57:12;11.95;;;3.30;;
77775;SDS011;66965;43.328;6.668;2023-08-12T14:59:38;14.60;;;3.58;;
77775;SDS011;66965;43.328;6.668;2023-08-12T15:02:04;20.10;;;4.10;;
77775;SDS011;66965;43.328;6.668;2023-08-12T15:04:29;9.88;;;3.40;;
77775;SDS011;66965;43.328;6.668;2023-08-12T15:06:55;9.73;;;3.35;;